Time;durP1;ratioP1;P1;durP2;ratioP2;P2;SDS_P1;SDS_P2;PMS_P1;PMS_P2;Temp;Humidity;BMP_temperature;BMP_pressure;BME280_temperature;BME280_humidity;BME280_pressure;Samples;Min_cycle;Max_cycle;Signal;HPM_P1;HPM_P2
2023/08/06 00:01:14;;;;;;;9.20;6.03;;;16.80;99.90;;;;;;4971450;28;20129;-55
2023/08/06 00:03:40;;;;;;;8.43;6.35;;;16.80;99.90;;;;;;4987046;28;20030;-54
2023/08/06 00:06:06;;;;;;;7.55;5.55;;;16.80;99.90;;;;;;4967083;28;20038;-55
2023/08/06 00:08:31;;;;;;;8.77;6.63;;;16.80;99.90;;;;;;4989623;28;20042;-55
2023/08/06 00:10:57;;;;;;;9.50;5.80;;;16.70;99.90;;;;;;4988199;28;20108;-55
2023/08/06 00:13:22;;;;;;;8.95;5.68;;;16.70;99.90;;;;;;4984901;28;20030;-54
2023/08/06 00:15:48;;;;;;;8.27;5.47;;;16.80;99.90;;;;;;4978318;28;20444;-57
2023/08/06 00:18:14;;;;;;;12.52;6.10;;;16.80;99.90;;;;;;4985537;28;20100;-54
2023/08/06 00:20:43;;;;;;;11.60;6.07;;;16.80;99.90;;;;;;4984851;28;20393;-54
2023/08/06 00:23:08;;;;;;;8.32;5.63;;;16.80;99.90;;;;;;4982175;28;20031;-54
2023/08/06 00:25:34;;;;;;;8.52;5.50;;;16.80;99.90;;;;;;4982980;28;20057;-55
2023/08/06 00:27:59;;;;;;;11.30;5.70;;;16.80;99.90;;;;;;4979034;28;20165;-55
2023/08/06 00:30:25;;;;;;;8.30;5.65;;;16.80;99.90;;;;;;4981596;28;20123;-55
2023/08/06 00:32:50;;;;;;;7.55;5.25;;;16.70;99.90;;;;;;4984355;28;20035;-55
2023/08/06 00:35:16;;;;;;;8.35;5.50;;;16.70;99.90;;;;;;4985118;28;20038;-55
2023/08/06 00:37:42;;;;;;;8.85;4.97;;;16.80;99.90;;;;;;4968101;28;20117;-56
2023/08/06 00:40:08;;;;;;;8.90;4.70;;;16.90;99.90;;;;;;4978424;28;20031;-55
2023/08/06 00:42:34;;;;;;;5.70;5.05;;;16.80;99.90;;;;;;4977683;28;20061;-56
2023/08/06 00:45:00;;;;;;;8.93;4.85;;;16.80;99.90;;;;;;4984319;28;20049;-56
2023/08/06 00:47:26;;;;;;;12.23;4.93;;;16.70;99.90;;;;;;4980409;28;20121;-54
2023/08/06 00:49:52;;;;;;;6.57;4.72;;;16.70;99.90;;;;;;4985338;28;20061;-54
2023/08/06 00:52:18;;;;;;;4.90;4.35;;;16.60;99.90;;;;;;4985309;28;20034;-54
2023/08/06 00:54:43;;;;;;;7.72;5.18;;;16.60;99.90;;;;;;4985283;28;20482;-54
2023/08/06 00:57:09;;;;;;;9.10;5.22;;;16.50;99.90;;;;;;4980659;28;20046;-55
2023/08/06 00:59:35;;;;;;;9.02;5.10;;;16.50;99.90;;;;;;4979788;28;20418;-56
2023/08/06 01:02:01;;;;;;;6.28;4.80;;;16.50;99.90;;;;;;4984630;28;20039;-55
2023/08/06 01:04:27;;;;;;;6.50;4.82;;;16.50;99.90;;;;;;4983244;28;20035;-54
2023/08/06 01:07:09;;;;;;;8.85;4.60;;;16.60;99.90;;;;;;4985045;28;20469;-55
2023/08/06 01:09:48;;;;;;;5.88;4.50;;;16.60;99.90;;;;;;4985252;28;20027;-56
2023/08/06 01:12:42;;;;;;;8.13;5.20;;;16.50;99.90;;;;;;4982927;28;20074;-53
2023/08/06 01:15:13;;;;;;;9.20;4.72;;;16.60;99.90;;;;;;4981632;28;20081;-55
2023/08/06 01:17:39;;;;;;;7.70;5.38;;;16.50;99.90;;;;;;4978230;28;20030;-56
2023/08/06 01:20:05;;;;;;;8.65;5.07;;;16.60;99.90;;;;;;4980726;28;20097;-55
2023/08/06 01:22:31;;;;;;;8.15;4.78;;;16.70;99.90;;;;;;4980727;28;20126;-54
2023/08/06 01:24:57;;;;;;;8.15;4.70;;;16.80;99.90;;;;;;4980596;28;20839;-55
2023/08/06 01:27:33;;;;;;;7.05;4.60;;;16.80;99.90;;;;;;4986296;28;20049;-55
2023/08/06 01:30:10;;;;;;;6.32;4.50;;;16.80;99.90;;;;;;4983012;28;20050;-54
2023/08/06 01:32:42;;;;;;;6.80;4.40;;;16.80;99.90;;;;;;4987212;28;20089;-55
2023/08/06 01:35:11;;;;;;;10.07;4.35;;;16.90;99.90;;;;;;4988444;28;20027;-56
2023/08/06 01:37:37;;;;;;;7.45;4.40;;;16.70;99.90;;;;;;4988543;28;20057;-56
2023/08/06 01:40:09;;;;;;;6.00;4.35;;;16.80;99.90;;;;;;4966886;28;20038;-55
2023/08/06 01:42:35;;;;;;;7.20;4.40;;;16.70;99.90;;;;;;4983780;28;20561;-56
2023/08/06 01:45:03;;;;;;;8.25;4.40;;;16.70;99.90;;;;;;4983886;28;20130;-55
2023/08/06 01:47:29;;;;;;;10.02;4.00;;;16.60;99.90;;;;;;4987316;28;20624;-57
2023/08/06 01:49:54;;;;;;;7.15;4.28;;;16.60;99.90;;;;;;4984927;28;20103;-54
2023/08/06 01:52:20;;;;;;;6.32;4.07;;;16.60;99.90;;;;;;4988569;28;20026;-56
2023/08/06 01:54:45;;;;;;;6.70;4.22;;;16.50;99.90;;;;;;4985735;28;20046;-56
2023/08/06 01:57:11;;;;;;;7.85;4.78;;;16.60;99.90;;;;;;4984512;28;20038;-55
2023/08/06 01:59:36;;;;;;;7.93;4.47;;;16.60;99.90;;;;;;4986543;28;20043;-55
2023/08/06 02:02:02;;;;;;;5.25;4.40;;;16.50;99.90;;;;;;4987713;28;20041;-55
2023/08/06 02:04:28;;;;;;;6.22;4.07;;;16.50;99.90;;;;;;4986567;28;20118;-55
2023/08/06 02:06:53;;;;;;;6.15;4.25;;;16.40;99.90;;;;;;4987935;28;20117;-56
2023/08/06 02:09:19;;;;;;;9.43;4.20;;;16.30;99.90;;;;;;4988082;28;20018;-56
2023/08/06 02:11:44;;;;;;;5.28;4.00;;;16.30;99.90;;;;;;4985706;28;20494;-56
2023/08/06 02:14:10;;;;;;;7.40;4.50;;;16.30;99.90;;;;;;4987958;28;20035;-56
2023/08/06 02:16:36;;;;;;;5.68;4.32;;;16.30;99.90;;;;;;4980195;28;20030;-56
2023/08/06 02:19:01;;;;;;;9.40;4.22;;;16.30;99.90;;;;;;4988198;28;20038;-55
2023/08/06 02:21:27;;;;;;;6.00;4.10;;;16.30;99.90;;;;;;4982074;28;20145;-56
2023/08/06 02:23:52;;;;;;;7.13;4.53;;;16.40;99.90;;;;;;4984013;28;20030;-55
2023/08/06 02:26:18;;;;;;;6.00;4.32;;;16.50;99.90;;;;;;4987444;28;20372;-55
2023/08/06 02:28:43;;;;;;;9.02;4.15;;;16.50;99.90;;;;;;4987961;28;20447;-56
2023/08/06 02:31:09;;;;;;;7.07;4.10;;;16.50;99.90;;;;;;4987959;28;20108;-55
2023/08/06 02:33:34;;;;;;;6.70;4.03;;;16.60;99.90;;;;;;4987317;28;20034;-56
2023/08/06 02:36:04;;;;;;;6.90;4.30;;;16.50;99.90;;;;;;4988090;28;20038;-55
2023/08/06 02:38:31;;;;;;;5.78;4.00;;;16.60;99.90;;;;;;4979253;28;20058;-54
2023/08/06 02:40:56;;;;;;;7.25;3.40;;;16.60;99.90;;;;;;4987877;28;20134;-55
2023/08/06 02:43:22;;;;;;;6.03;3.90;;;16.40;99.90;;;;;;4987976;28;20512;-55
2023/08/06 02:45:47;;;;;;;6.85;4.07;;;16.40;99.90;;;;;;4986497;28;20034;-54
2023/08/06 02:48:13;;;;;;;7.57;3.72;;;16.50;99.90;;;;;;4987393;28;20177;-55
2023/08/06 02:50:42;;;;;;;4.90;3.58;;;16.40;99.90;;;;;;4980428;28;20038;-54
2023/08/06 02:53:08;;;;;;;5.28;3.42;;;16.30;99.90;;;;;;4982427;28;20514;-55
2023/08/06 02:55:34;;;;;;;5.47;3.97;;;16.40;99.90;;;;;;4984011;28;20034;-55
2023/08/06 02:58:01;;;;;;;5.80;3.53;;;16.40;99.90;;;;;;4981880;28;20038;-55
2023/08/06 03:00:27;;;;;;;6.60;3.28;;;16.30;99.90;;;;;;4987416;28;20042;-54
2023/08/06 03:02:53;;;;;;;6.07;3.92;;;16.20;99.90;;;;;;4981243;28;20027;-55
2023/08/06 03:05:18;;;;;;;3.70;3.13;;;16.20;99.90;;;;;;4985796;28;20026;-54
2023/08/06 03:07:44;;;;;;;4.93;3.28;;;16.10;99.90;;;;;;4981940;28;20038;-55
2023/08/06 03:10:10;;;;;;;3.75;3.28;;;16.10;99.90;;;;;;4978908;28;20372;-55
2023/08/06 03:12:35;;;;;;;4.95;3.38;;;16.10;99.90;;;;;;4985220;28;20065;-54
2023/08/06 03:15:01;;;;;;;6.50;3.40;;;16.20;99.90;;;;;;4982802;28;20042;-55
2023/08/06 03:17:26;;;;;;;6.28;3.85;;;16.10;99.90;;;;;;4982285;28;20039;-55
2023/08/06 03:19:52;;;;;;;5.05;3.33;;;16.00;99.90;;;;;;4981453;28;20178;-53
2023/08/06 03:22:17;;;;;;;6.45;3.60;;;16.00;99.90;;;;;;4981652;28;20046;-55
2023/08/06 03:24:43;;;;;;;7.43;3.65;;;16.00;99.90;;;;;;4982650;28;20026;-55
2023/08/06 03:27:09;;;;;;;6.25;3.22;;;16.10;99.90;;;;;;4986966;28;20742;-55
2023/08/06 03:29:34;;;;;;;6.03;3.50;;;16.00;99.90;;;;;;4984025;28;20262;-55
2023/08/06 03:32:00;;;;;;;10.20;3.90;;;16.00;99.90;;;;;;4987126;28;20034;-55
2023/08/06 03:34:28;;;;;;;8.52;3.22;;;16.00;99.90;;;;;;4982329;28;20027;-54
2023/08/06 03:36:54;;;;;;;6.38;3.60;;;16.10;99.90;;;;;;4982512;28;20031;-55
2023/08/06 03:39:19;;;;;;;4.13;3.17;;;16.10;99.90;;;;;;4981199;28;20501;-57
2023/08/06 03:41:45;;;;;;;4.38;3.45;;;16.20;99.90;;;;;;4985152;28;20440;-56
2023/08/06 03:44:11;;;;;;;5.80;3.28;;;16.30;99.90;;;;;;4986829;28;20369;-57
2023/08/06 03:46:36;;;;;;;5.63;3.47;;;16.10;99.90;;;;;;4981888;28;20033;-56
2023/08/06 03:49:02;;;;;;;7.05;3.85;;;16.20;99.90;;;;;;4982426;28;20133;-53
2023/08/06 03:51:27;;;;;;;5.20;3.10;;;16.20;99.90;;;;;;4984287;28;20057;-55
2023/08/06 03:53:53;;;;;;;4.75;3.30;;;16.20;99.90;;;;;;4982890;28;20034;-55
2023/08/06 03:56:19;;;;;;;5.93;3.83;;;16.20;99.90;;;;;;4983066;28;20084;-55
2023/08/06 03:58:44;;;;;;;5.72;3.00;;;16.30;99.90;;;;;;4986689;28;20026;-55
2023/08/06 04:01:10;;;;;;;8.43;3.55;;;15.90;99.90;;;;;;4985662;28;20039;-55
2023/08/06 04:03:36;;;;;;;5.28;3.28;;;16.10;99.90;;;;;;4987377;28;20887;-55
2023/08/06 04:06:04;;;;;;;5.13;3.15;;;16.20;99.90;;;;;;4986292;28;20043;-55
2023/08/06 04:08:30;;;;;;;3.28;2.97;;;16.40;99.90;;;;;;4983703;28;20385;-55
2023/08/06 04:10:55;;;;;;;5.97;3.78;;;16.20;99.90;;;;;;4966783;28;20027;-53
2023/08/06 04:13:21;;;;;;;5.82;3.90;;;16.20;99.90;;;;;;4980949;28;20255;-55
2023/08/06 04:15:47;;;;;;;5.13;3.40;;;16.30;99.90;;;;;;4971629;28;20133;-55
2023/08/06 04:18:13;;;;;;;4.85;3.25;;;16.20;99.90;;;;;;4985854;28;20144;-55
2023/08/06 04:20:46;;;;;;;6.25;3.60;;;16.10;99.90;;;;;;4979889;28;20070;-55
2023/08/06 04:23:12;;;;;;;5.10;3.75;;;16.10;99.90;;;;;;4978648;28;20038;-53
2023/08/06 04:25:38;;;;;;;9.82;4.53;;;16.20;99.90;;;;;;4987090;28;20516;-55
2023/08/06 04:28:04;;;;;;;5.93;4.88;;;16.10;99.90;;;;;;4988607;28;20039;-55
2023/08/06 04:30:30;;;;;;;7.53;4.40;;;16.30;99.90;;;;;;4983518;28;20030;-56
2023/08/06 04:32:58;;;;;;;7.53;4.40;;;16.20;99.90;;;;;;4985695;28;20038;-54
2023/08/06 04:35:24;;;;;;;9.32;4.80;;;16.10;99.90;;;;;;4981741;28;20108;-53
2023/08/06 04:37:49;;;;;;;8.63;4.45;;;16.30;99.90;;;;;;4978235;28;20537;-55
2023/08/06 04:40:15;;;;;;;6.38;4.45;;;16.40;99.90;;;;;;4966913;28;20034;-55
2023/08/06 04:42:40;;;;;;;8.85;4.20;;;16.20;99.90;;;;;;4977808;28;20097;-54
2023/08/06 04:45:07;;;;;;;6.38;4.15;;;16.30;99.90;;;;;;4983354;28;20054;-55
2023/08/06 04:47:32;;;;;;;6.10;4.18;;;16.20;99.90;;;;;;4981251;28;20564;-55
2023/08/06 04:49:58;;;;;;;7.00;4.00;;;16.20;99.90;;;;;;4977865;28;20035;-55
2023/08/06 04:52:27;;;;;;;5.35;3.90;;;16.20;99.90;;;;;;4982427;28;20445;-57
2023/08/06 04:54:53;;;;;;;6.25;3.88;;;16.10;99.90;;;;;;4980714;28;20034;-56
2023/08/06 04:57:18;;;;;;;6.25;3.75;;;16.10;99.90;;;;;;4979699;28;20080;-56
2023/08/06 04:59:44;;;;;;;5.85;3.85;;;16.20;99.90;;;;;;4983671;28;20491;-53
2023/08/06 05:02:09;;;;;;;8.77;4.03;;;16.20;99.90;;;;;;4977926;28;20718;-54
2023/08/06 05:04:35;;;;;;;8.65;3.92;;;16.30;99.90;;;;;;4983799;28;20066;-55
2023/08/06 05:07:00;;;;;;;6.00;4.00;;;16.50;99.90;;;;;;4981043;28;20027;-54
2023/08/06 05:09:26;;;;;;;7.20;4.50;;;16.00;99.90;;;;;;4985323;28;20037;-55
2023/08/06 05:11:51;;;;;;;6.00;4.13;;;16.40;99.90;;;;;;4982812;28;20023;-54
2023/08/06 05:14:17;;;;;;;9.02;4.40;;;16.40;99.90;;;;;;4984053;28;20109;-55
2023/08/06 05:16:42;;;;;;;5.55;3.70;;;16.60;99.90;;;;;;4979055;28;20084;-55
2023/08/06 05:19:08;;;;;;;6.18;3.95;;;16.40;99.90;;;;;;4983176;28;20031;-54
2023/08/06 05:21:33;;;;;;;5.90;3.80;;;16.50;99.90;;;;;;4982185;28;20035;-55
2023/08/06 05:23:59;;;;;;;6.03;3.67;;;16.60;99.90;;;;;;4984037;28;20482;-56
2023/08/06 05:26:25;;;;;;;8.48;4.05;;;16.60;99.90;;;;;;4984824;28;20026;-55
2023/08/06 05:28:50;;;;;;;7.03;3.80;;;16.60;99.90;;;;;;4982834;28;20133;-56
2023/08/06 05:31:16;;;;;;;5.60;3.97;;;16.50;99.90;;;;;;4981559;28;20239;-56
2023/08/06 05:33:41;;;;;;;8.50;4.40;;;16.60;99.90;;;;;;4985239;28;20035;-55
2023/08/06 05:36:07;;;;;;;7.85;4.22;;;16.60;99.90;;;;;;4982546;28;20554;-55
2023/08/06 05:38:32;;;;;;;7.22;4.70;;;16.70;99.90;;;;;;4983069;28;20038;-56
2023/08/06 05:40:58;;;;;;;7.32;4.72;;;16.60;99.90;;;;;;4979952;28;20038;-56
2023/08/06 05:43:23;;;;;;;7.32;4.60;;;16.80;99.90;;;;;;4980410;28;20045;-54
2023/08/06 05:45:50;;;;;;;6.22;3.90;;;16.90;99.90;;;;;;4985506;28;20133;-57
2023/08/06 05:48:16;;;;;;;6.22;4.13;;;16.90;99.90;;;;;;4986911;28;20100;-57
2023/08/06 05:50:41;;;;;;;7.00;4.45;;;17.00;99.90;;;;;;4981367;28;20027;-54
2023/08/06 05:53:07;;;;;;;6.00;4.18;;;17.10;99.90;;;;;;4980629;28;20448;-56
2023/08/06 05:55:33;;;;;;;7.95;4.40;;;17.20;99.90;;;;;;4979028;28;20404;-55
2023/08/06 05:57:59;;;;;;;7.00;3.88;;;17.40;99.90;;;;;;4984087;28;20537;-55
2023/08/06 06:00:24;;;;;;;7.22;3.47;;;17.40;99.90;;;;;;4983156;28;20054;-56
2023/08/06 06:02:50;;;;;;;4.07;2.92;;;17.50;99.90;;;;;;4982011;28;20046;-56
2023/08/06 06:05:16;;;;;;;5.53;2.95;;;17.50;99.90;;;;;;4982982;28;20038;-55
2023/08/06 06:07:41;;;;;;;7.18;3.22;;;17.40;99.90;;;;;;4964373;28;20084;-55
2023/08/06 06:10:07;;;;;;;5.07;3.22;;;17.50;99.90;;;;;;4979052;28;20094;-55
2023/08/06 06:12:33;;;;;;;4.90;3.08;;;17.60;99.90;;;;;;4987355;28;20449;-54
2023/08/06 06:15:00;;;;;;;6.57;3.38;;;17.70;99.90;;;;;;4987456;28;20034;-55
2023/08/06 06:17:26;;;;;;;6.47;3.05;;;17.70;99.90;;;;;;4983586;28;20038;-56
2023/08/06 06:19:52;;;;;;;4.75;2.72;;;17.80;99.90;;;;;;4985177;28;20030;-53
2023/08/06 06:22:18;;;;;;;3.35;2.30;;;17.90;99.90;;;;;;4988040;28;20402;-55
2023/08/06 06:24:43;;;;;;;2.67;2.13;;;17.80;99.90;;;;;;4977945;28;20031;-55
2023/08/06 06:27:09;;;;;;;6.68;2.30;;;17.70;99.90;;;;;;4985543;28;20088;-55
2023/08/06 06:29:34;;;;;;;5.18;2.20;;;17.60;99.90;;;;;;4987821;28;20046;-56
2023/08/06 06:32:00;;;;;;;3.35;2.00;;;17.60;99.90;;;;;;4984451;28;20398;-54
2023/08/06 06:34:25;;;;;;;4.90;2.42;;;17.50;99.90;;;;;;4984944;28;20034;-56
2023/08/06 06:36:51;;;;;;;5.05;2.13;;;17.60;99.90;;;;;;4983919;28;20244;-55
2023/08/06 06:39:17;;;;;;;3.38;2.03;;;17.80;99.90;;;;;;4981974;28;20035;-53
2023/08/06 06:41:44;;;;;;;3.55;2.08;;;17.80;99.90;;;;;;4982426;28;20038;-56
2023/08/06 06:44:10;;;;;;;3.08;1.95;;;17.70;99.90;;;;;;4983561;28;20031;-54
2023/08/06 06:46:35;;;;;;;5.18;2.30;;;17.80;99.90;;;;;;4986181;28;20052;-56
2023/08/06 06:49:01;;;;;;;5.38;2.20;;;17.70;99.90;;;;;;4983312;28;20057;-56
2023/08/06 06:51:27;;;;;;;5.22;2.50;;;17.70;99.90;;;;;;4982060;28;20035;-56
2023/08/06 06:53:52;;;;;;;6.38;2.67;;;17.70;99.90;;;;;;4986804;28;20045;-55
2023/08/06 06:56:18;;;;;;;6.05;2.80;;;17.90;99.90;;;;;;4985499;28;20073;-55
2023/08/06 06:58:44;;;;;;;5.05;2.97;;;18.00;99.90;;;;;;4987869;28;20465;-56
2023/08/06 07:01:11;;;;;;;3.67;2.38;;;17.80;99.90;;;;;;4968275;28;20050;-56
2023/08/06 07:03:37;;;;;;;5.10;2.25;;;17.80;99.90;;;;;;4987372;28;20050;-55
2023/08/06 07:06:03;;;;;;;6.93;2.92;;;17.50;99.90;;;;;;4984620;28;20482;-55
2023/08/06 07:08:29;;;;;;;4.28;2.78;;;17.70;99.90;;;;;;4986435;28;20038;-56
2023/08/06 07:11:05;;;;;;;4.45;2.90;;;17.80;99.90;;;;;;4983389;28;20034;-54
2023/08/06 07:13:31;;;;;;;4.75;3.15;;;18.10;99.90;;;;;;4982344;28;20577;-56
2023/08/06 07:15:57;;;;;;;4.85;3.35;;;18.10;99.90;;;;;;4987307;28;20041;-54
2023/08/06 07:18:23;;;;;;;4.18;3.17;;;18.30;99.90;;;;;;4981753;28;20509;-56
2023/08/06 07:20:52;;;;;;;4.82;3.30;;;18.10;99.90;;;;;;4983564;28;20490;-55
2023/08/06 07:23:24;;;;;;;5.07;3.20;;;17.90;99.90;;;;;;4984839;28;20046;-54
2023/08/06 07:25:50;;;;;;;4.65;3.28;;;17.70;99.90;;;;;;4985928;28;20035;-56
2023/08/06 07:28:15;;;;;;;8.20;3.90;;;17.60;99.90;;;;;;4983812;28;20198;-56
2023/08/06 07:30:43;;;;;;;6.03;3.30;;;17.70;99.90;;;;;;4985533;28;20074;-55
2023/08/06 07:33:09;;;;;;;5.85;3.70;;;17.80;99.90;;;;;;4985978;28;20038;-55
2023/08/06 07:35:35;;;;;;;7.75;4.05;;;17.80;99.90;;;;;;4991113;28;20083;-55
2023/08/06 07:38:01;;;;;;;6.63;3.88;;;18.00;99.90;;;;;;4987276;28;20038;-56
2023/08/06 07:40:27;;;;;;;5.95;4.10;;;18.10;99.90;;;;;;4980296;28;20050;-54
2023/08/06 07:42:52;;;;;;;5.50;3.70;;;18.10;99.90;;;;;;4977043;28;20175;-56
2023/08/06 07:45:18;;;;;;;4.47;4.00;;;18.10;99.90;;;;;;4988461;28;20042;-54
2023/08/06 07:47:44;;;;;;;4.60;3.60;;;18.10;99.90;;;;;;4985094;28;20405;-55
2023/08/06 07:50:10;;;;;;;6.75;4.10;;;18.30;99.90;;;;;;4971465;28;20046;-54
2023/08/06 07:52:35;;;;;;;5.72;3.10;;;18.40;99.90;;;;;;4964499;28;20038;-54
2023/08/06 07:55:04;;;;;;;4.15;2.83;;;18.50;99.90;;;;;;4972707;28;20724;-55
2023/08/06 07:57:30;;;;;;;4.45;2.80;;;18.60;99.90;;;;;;4989670;28;20038;-54
2023/08/06 07:59:56;;;;;;;6.00;2.78;;;18.80;99.90;;;;;;4986911;28;20592;-55
2023/08/06 08:02:22;;;;;;;5.18;2.63;;;18.50;99.90;;;;;;4984233;28;20066;-56
2023/08/06 08:04:48;;;;;;;4.65;2.60;;;18.50;99.90;;;;;;4984690;28;20046;-56
2023/08/06 08:07:14;;;;;;;7.07;2.67;;;18.40;99.90;;;;;;4986187;28;20560;-55
2023/08/06 08:09:40;;;;;;;4.90;2.70;;;18.30;99.90;;;;;;4985564;28;20088;-56
2023/08/06 08:12:06;;;;;;;4.63;2.78;;;18.30;99.90;;;;;;4985182;28;20109;-54
2023/08/06 08:14:35;;;;;;;4.18;2.70;;;18.40;99.90;;;;;;4987621;28;20042;-56
2023/08/06 08:17:02;;;;;;;3.75;3.10;;;18.60;99.90;;;;;;4984350;28;20061;-55
2023/08/06 08:19:28;;;;;;;5.28;2.85;;;18.60;99.90;;;;;;4965828;28;20067;-55
2023/08/06 08:21:54;;;;;;;4.32;3.00;;;18.70;99.90;;;;;;4986109;28;20068;-56
2023/08/06 08:24:20;;;;;;;5.75;3.40;;;18.80;99.90;;;;;;4981883;28;20061;-55
2023/08/06 08:26:45;;;;;;;9.30;3.53;;;18.80;99.90;;;;;;4993477;28;20046;-56
2023/08/06 08:29:11;;;;;;;3.55;3.17;;;18.80;99.90;;;;;;4978347;28;20034;-56
2023/08/06 08:31:39;;;;;;;8.45;5.72;;;18.90;99.90;;;;;;4982367;28;20031;-56
2023/08/06 08:34:05;;;;;;;15.05;11.73;;;18.80;99.90;;;;;;4972891;28;20137;-56
2023/08/06 08:36:31;;;;;;;4.68;2.90;;;18.70;99.90;;;;;;4984309;28;21337;-56
2023/08/06 08:38:57;;;;;;;7.30;2.70;;;18.80;99.90;;;;;;4979571;28;20027;-56
2023/08/06 08:41:23;;;;;;;5.10;2.33;;;18.80;99.90;;;;;;4981299;28;20081;-56
2023/08/06 08:43:51;;;;;;;7.85;2.50;;;18.80;99.90;;;;;;4985496;28;20073;-56
2023/08/06 08:46:19;;;;;;;4.32;2.28;;;18.90;99.90;;;;;;4980927;28;20713;-55
2023/08/06 08:48:45;;;;;;;5.53;2.40;;;19.10;99.90;;;;;;4996822;28;20034;-55
2023/08/06 08:51:12;;;;;;;5.20;1.85;;;19.00;99.90;;;;;;4986841;28;20069;-56
2023/08/06 08:53:39;;;;;;;3.50;1.50;;;18.90;99.90;;;;;;4986003;28;20640;-55
2023/08/06 08:56:05;;;;;;;5.82;1.85;;;18.70;99.90;;;;;;4981576;28;20037;-54
2023/08/06 08:58:31;;;;;;;5.03;1.83;;;18.70;99.90;;;;;;4995120;28;20121;-54
2023/08/06 09:00:58;;;;;;;2.97;1.50;;;18.50;99.90;;;;;;4986298;28;20546;-55
2023/08/06 09:03:24;;;;;;;6.57;2.10;;;18.30;99.90;;;;;;4985403;28;20394;-55
2023/08/06 09:05:53;;;;;;;6.55;1.65;;;18.30;99.90;;;;;;4992420;28;20030;-55
2023/08/06 09:08:24;;;;;;;5.63;1.60;;;18.50;99.90;;;;;;4971626;28;20441;-55
2023/08/06 09:10:52;;;;;;;3.90;1.40;;;18.60;99.90;;;;;;4984066;28;20093;-56
2023/08/06 09:13:17;;;;;;;5.82;1.75;;;18.70;99.90;;;;;;4989608;28;20129;-55
2023/08/06 09:15:44;;;;;;;4.35;1.67;;;18.80;99.90;;;;;;4972874;28;20130;-56
2023/08/06 09:18:12;;;;;;;5.22;1.77;;;18.80;99.90;;;;;;4981211;28;20044;-55
2023/08/06 09:20:41;;;;;;;8.07;1.90;;;18.80;99.90;;;;;;4982180;28;20489;-56
2023/08/06 09:23:10;;;;;;;4.45;1.58;;;18.80;99.90;;;;;;4983284;28;20405;-55
2023/08/06 09:25:39;;;;;;;5.88;1.95;;;18.50;99.90;;;;;;4977876;28;20096;-54
2023/08/06 09:28:05;;;;;;;4.10;1.80;;;18.60;99.90;;;;;;4987214;28;20524;-56
2023/08/06 09:30:33;;;;;;;4.85;2.10;;;18.60;99.90;;;;;;4967154;28;20046;-56
2023/08/06 09:32:58;;;;;;;5.70;2.42;;;18.80;99.90;;;;;;4981551;28;20321;-55
2023/08/06 09:35:24;;;;;;;7.13;2.25;;;18.80;99.90;;;;;;4978576;28;20112;-54
2023/08/06 09:37:50;;;;;;;6.20;2.28;;;18.60;99.90;;;;;;4989290;28;20035;-55
2023/08/06 09:40:29;;;;;;;3.85;2.53;;;18.60;99.90;;;;;;4985629;28;20045;-56
2023/08/06 09:42:55;;;;;;;6.18;2.78;;;18.80;99.90;;;;;;4986451;28;20034;-55
2023/08/06 09:45:23;;;;;;;4.45;2.47;;;18.90;99.90;;;;;;4988253;28;20524;-55
2023/08/06 09:47:50;;;;;;;4.65;2.40;;;18.90;99.90;;;;;;4979704;28;20050;-55
2023/08/06 09:50:20;;;;;;;9.23;3.10;;;19.00;99.90;;;;;;4986084;28;20038;-55
2023/08/06 09:52:47;;;;;;;9.07;5.10;;;19.00;99.90;;;;;;4986986;28;20116;-57
2023/08/06 09:55:13;;;;;;;8.02;5.20;;;18.70;99.90;;;;;;4991081;28;20057;-53
2023/08/06 09:57:41;;;;;;;8.00;4.22;;;18.60;99.90;;;;;;4983820;28;20633;-55
2023/08/06 10:00:09;;;;;;;7.68;4.80;;;18.60;99.90;;;;;;4981703;28;20046;-53
2023/08/06 10:02:39;;;;;;;8.18;4.13;;;18.50;99.90;;;;;;4980625;28;20046;-54
2023/08/06 10:05:05;;;;;;;7.13;3.53;;;18.50;99.90;;;;;;4983409;28;20046;-56
2023/08/06 10:07:31;;;;;;;7.40;3.03;;;18.50;99.90;;;;;;4983018;28;20057;-55
2023/08/06 10:09:57;;;;;;;4.53;2.80;;;18.20;99.90;;;;;;4968323;28;20042;-57
2023/08/06 10:12:25;;;;;;;3.83;2.47;;;18.10;99.90;;;;;;4987925;28;20042;-55
2023/08/06 10:14:54;;;;;;;5.35;2.75;;;18.00;99.90;;;;;;4991416;28;20386;-55
2023/08/06 10:17:23;;;;;;;3.83;2.58;;;17.70;99.90;;;;;;4992575;28;20033;-55
2023/08/06 10:19:50;;;;;;;4.60;2.45;;;17.70;99.90;;;;;;4989009;28;20074;-55
2023/08/06 10:22:17;;;;;;;4.20;2.13;;;18.30;99.90;;;;;;4988468;28;20042;-54
2023/08/06 10:24:48;;;;;;;2.92;2.00;;;17.30;99.90;;;;;;4987726;28;20501;-55
2023/08/06 10:27:22;;;;;;;2.08;1.70;;;17.50;99.90;;;;;;4987720;28;20041;-55
2023/08/06 10:29:51;;;;;;;1.30;1.15;;;17.10;99.90;;;;;;4985849;28;20038;-55
2023/08/06 10:32:18;;;;;;;1.20;1.10;;;16.90;99.90;;;;;;4986569;28;20030;-54
2023/08/06 10:35:00;;;;;;;1.30;1.00;;;16.70;99.90;;;;;;4988329;28;20034;-54
2023/08/06 10:37:38;;;;;;;2.30;1.10;;;16.40;99.90;;;;;;4977886;28;20045;-55
2023/08/06 10:40:07;;;;;;;3.03;1.05;;;16.00;99.90;;;;;;4986987;28;20532;-55
2023/08/06 10:42:33;;;;;;;1.23;1.10;;;15.90;99.90;;;;;;4983628;28;20035;-56
2023/08/06 10:45:34;;;;;;;1.20;1.08;;;15.70;99.90;;;;;;4964307;28;20034;-56
2023/08/06 10:47:59;;;;;;;1.63;1.40;;;15.80;99.90;;;;;;4944723;28;20644;-56
2023/08/06 10:50:25;;;;;;;2.92;1.40;;;15.70;99.90;;;;;;4985272;28;20080;-55
2023/08/06 10:52:52;;;;;;;2.28;1.50;;;15.70;99.90;;;;;;4986868;28;20034;-55
2023/08/06 10:55:25;;;;;;;2.03;1.70;;;15.70;99.90;;;;;;4985026;28;20042;-56
2023/08/06 10:57:50;;;;;;;;;;;15.60;99.90;;;;;;4985276;28;20540;-56
2023/08/06 11:00:16;;;;;;;3.20;2.20;;;15.60;99.90;;;;;;4991230;28;19917;-56
2023/08/06 11:02:42;;;;;;;3.47;2.22;;;15.70;99.90;;;;;;4985776;28;20041;-56
2023/08/06 11:05:08;;;;;;;3.78;2.50;;;15.50;99.90;;;;;;4979390;28;20427;-54
2023/08/06 11:07:38;;;;;;;3.00;2.70;;;15.70;99.90;;;;;;4981638;28;20035;-56
2023/08/06 11:10:08;;;;;;;4.57;3.33;;;15.60;99.90;;;;;;4995169;28;20506;-55
2023/08/06 11:12:34;;;;;;;5.10;3.60;;;15.60;99.90;;;;;;4981461;28;20037;-58
2023/08/06 11:15:01;;;;;;;3.80;3.50;;;15.50;99.90;;;;;;4988176;28;20092;-55
2023/08/06 11:17:32;;;;;;;4.75;4.18;;;15.60;99.90;;;;;;4967497;28;20034;-57
2023/08/06 11:20:05;;;;;;;6.43;4.30;;;16.10;99.90;;;;;;4981929;28;20038;-55
2023/08/06 11:22:31;;;;;;;6.57;4.07;;;15.60;99.90;;;;;;4965076;28;20035;-55
2023/08/06 11:24:57;;;;;;;5.30;4.25;;;15.60;99.90;;;;;;4967705;28;20122;-53
2023/08/06 11:27:23;;;;;;;7.10;4.60;;;15.50;99.90;;;;;;4966856;28;20089;-55
2023/08/06 11:29:48;;;;;;;6.05;4.78;;;15.60;99.90;;;;;;4962777;28;20493;-56
2023/08/06 11:32:14;;;;;;;4.88;4.38;;;15.60;99.90;;;;;;4966269;28;20043;-56
2023/08/06 11:34:41;;;;;;;5.13;4.65;;;15.70;99.90;;;;;;4960705;28;20027;-55
2023/08/06 11:37:07;;;;;;;6.68;4.80;;;15.70;99.90;;;;;;4963478;28;20093;-57
2023/08/06 11:39:34;;;;;;;7.18;5.10;;;15.70;99.90;;;;;;4962072;28;20031;-56
2023/08/06 11:42:02;;;;;;;6.55;4.70;;;15.60;99.90;;;;;;4968732;28;20058;-56
2023/08/06 11:44:34;;;;;;;6.43;5.07;;;15.60;99.90;;;;;;4990393;28;20501;-55
2023/08/06 11:47:01;;;;;;;6.90;5.45;;;15.60;99.90;;;;;;4983945;28;20046;-57
2023/08/06 11:49:47;;;;;;;6.93;4.70;;;15.70;99.90;;;;;;4989740;28;20029;-55
2023/08/06 11:52:20;;;;;;;5.53;3.50;;;15.60;99.90;;;;;;4996718;28;20069;-55
2023/08/06 11:55:10;;;;;;;4.78;3.53;;;15.30;99.90;;;;;;4974476;28;20046;-56
2023/08/06 11:57:36;;;;;;;6.15;4.07;;;15.30;99.90;;;;;;4963840;28;20024;-55
2023/08/06 12:00:07;;;;;;;4.35;3.47;;;15.70;99.90;;;;;;4962487;28;20554;-55
2023/08/06 12:02:37;;;;;;;3.63;3.10;;;15.50;99.90;;;;;;4963548;28;20051;-56
2023/08/06 12:05:14;;;;;;;3.38;3.08;;;15.40;99.90;;;;;;4962114;28;20530;-56
2023/08/06 12:07:48;;;;;;;4.88;3.85;;;15.50;99.90;;;;;;4966466;28;20023;-54
2023/08/06 12:10:15;;;;;;;3.97;3.58;;;15.70;99.90;;;;;;4966316;28;20176;-55
2023/08/06 12:12:41;;;;;;;4.45;3.63;;;15.60;99.90;;;;;;4951938;28;20394;-56
2023/08/06 12:15:08;;;;;;;9.60;8.80;;;15.60;99.90;;;;;;4960213;28;20035;-57
2023/08/06 12:17:34;;;;;;;4.40;3.97;;;16.10;99.90;;;;;;4961997;28;20097;-56
2023/08/06 12:20:00;;;;;;;5.32;3.58;;;15.50;99.90;;;;;;4966711;28;20035;-56
2023/08/06 12:22:25;;;;;;;5.00;3.58;;;15.50;99.90;;;;;;4967001;28;20035;-54
2023/08/06 12:24:51;;;;;;;4.90;3.60;;;15.70;99.90;;;;;;4966629;28;20041;-55
2023/08/06 12:27:17;;;;;;;9.40;4.07;;;15.70;99.90;;;;;;4975528;28;20034;-57
2023/08/06 12:29:48;;;;;;;5.85;3.55;;;15.60;99.90;;;;;;4967517;28;20027;-54
2023/08/06 12:32:14;;;;;;;4.43;3.30;;;15.70;99.90;;;;;;4975100;28;20730;-56
2023/08/06 12:34:41;;;;;;;6.13;3.90;;;15.70;99.90;;;;;;4962786;28;20042;-56
2023/08/06 12:37:07;;;;;;;7.00;4.00;;;15.80;99.90;;;;;;4965321;28;20640;-56
2023/08/06 12:39:33;;;;;;;4.93;3.78;;;15.60;99.90;;;;;;4966226;28;20083;-56
2023/08/06 12:42:03;;;;;;;6.13;3.67;;;15.70;99.90;;;;;;4967098;28;20642;-56
2023/08/06 12:44:29;;;;;;;4.47;3.45;;;15.90;99.90;;;;;;4975208;28;20089;-56
2023/08/06 12:46:54;;;;;;;11.32;3.72;;;15.80;99.90;;;;;;4971982;28;20027;-56